createdAt,value
2018-03-18T00:00:51.806Z,73.00
2018-03-18T00:03:19.426Z,72.40
2018-03-18T00:05:47.021Z,71.90
2018-03-18T00:08:15.380Z,72.10
2018-03-18T00:10:42.929Z,72.20
2018-03-18T00:13:10.501Z,72.30
2018-03-18T00:15:38.058Z,72.70
2018-03-18T00:18:05.712Z,72.50
2018-03-18T00:20:33.422Z,72.20
2018-03-18T00:23:00.989Z,73.10
2018-03-18T00:25:28.539Z,74.00
2018-03-18T00:27:56.863Z,72.60
2018-03-18T00:30:24.491Z,72.50
2018-03-18T00:32:52.910Z,72.80
2018-03-18T00:35:20.569Z,72.70
2018-03-18T00:37:48.230Z,73.20
2018-03-18T00:40:15.846Z,71.80
2018-03-18T00:42:43.381Z,71.50
2018-03-18T00:45:10.957Z,72.60
2018-03-18T00:47:38.510Z,72.60
2018-03-18T00:50:06.850Z,72.10
2018-03-18T00:52:34.392Z,72.10
2018-03-18T00:55:01.937Z,72.90
2018-03-18T00:57:30.255Z,72.70
2018-03-18T00:59:57.848Z,72.60
2018-03-18T01:02:26.190Z,72.20
2018-03-18T01:04:53.750Z,72.00
2018-03-18T01:07:21.427Z,72.20
2018-03-18T01:09:49.041Z,71.10
2018-03-18T01:12:16.609Z,72.20
2018-03-18T01:14:44.181Z,71.60
2018-03-18T01:17:11.731Z,72.40
2018-03-18T01:19:39.365Z,72.30
2018-03-18T01:22:07.687Z,71.90
2018-03-18T01:24:35.269Z,71.90
2018-03-18T01:27:02.840Z,71.70
2018-03-18T01:29:31.922Z,72.60
2018-03-18T01:31:59.474Z,72.50
2018-03-18T01:34:27.041Z,71.30
2018-03-18T01:36:54.586Z,71.60
2018-03-18T01:39:22.248Z,71.40
2018-03-18T01:41:49.858Z,71.50
2018-03-18T01:44:17.413Z,71.90
2018-03-18T01:46:45.721Z,71.80
2018-03-18T01:49:13.286Z,71.80
2018-03-18T01:51:40.887Z,72.00
2018-03-18T01:54:08.430Z,72.60
2018-03-18T01:56:36.280Z,72.70
2018-03-18T01:59:03.854Z,71.90
2018-03-18T02:01:31.390Z,71.80
2018-03-18T02:03:59.140Z,71.60
2018-03-18T02:06:26.843Z,71.20
2018-03-18T02:08:54.627Z,71.20
2018-03-18T02:11:22.181Z,70.70
2018-03-18T02:13:49.776Z,69.70
2018-03-18T02:16:18.097Z,71.30
2018-03-18T02:18:45.643Z,71.20
2018-03-18T02:21:13.228Z,70.10
2018-03-18T02:23:40.774Z,70.60
2018-03-18T02:26:08.345Z,70.90
2018-03-18T02:28:35.893Z,69.90
2018-03-18T02:31:03.483Z,70.90
2018-03-18T02:33:31.044Z,71.30
2018-03-18T02:35:58.625Z,71.60
2018-03-18T02:38:26.182Z,72.10
2018-03-18T02:40:54.564Z,70.80
2018-03-18T02:43:22.107Z,70.80
2018-03-18T02:45:49.659Z,71.10
2018-03-18T02:48:17.334Z,70.60
2018-03-18T02:50:44.886Z,70.70
2018-03-18T02:53:12.501Z,71.00
2018-03-18T02:55:40.090Z,71.60
2018-03-18T02:58:09.157Z,72.10
2018-03-18T03:00:36.709Z,71.50
2018-03-18T03:03:04.535Z,71.70
2018-03-18T03:05:32.080Z,70.60
2018-03-18T03:08:00.413Z,71.00
2018-03-18T03:10:28.017Z,71.00
2018-03-18T03:12:56.333Z,70.70
2018-03-18T03:15:23.921Z,70.70
2018-03-18T03:17:51.457Z,70.80
2018-03-18T03:20:19.025Z,71.20
2018-03-18T03:22:46.564Z,71.00
2018-03-18T03:25:14.104Z,70.50
2018-03-18T03:27:41.658Z,70.70
2018-03-18T03:30:09.974Z,70.70
2018-03-18T03:32:37.546Z,70.60
2018-03-18T03:35:05.099Z,69.40
2018-03-18T03:37:32.664Z,69.90
2018-03-18T03:40:00.467Z,70.90
2018-03-18T03:42:28.037Z,71.10
2018-03-18T03:44:55.581Z,70.30
2018-03-18T03:47:23.145Z,69.90
2018-03-18T03:49:51.459Z,69.70
2018-03-18T03:52:19.048Z,69.60
2018-03-18T03:54:46.589Z,70.00
2018-03-18T03:57:14.180Z,69.60
2018-03-18T03:59:41.725Z,69.80
2018-03-18T04:02:09.272Z,70.20
2018-03-18T04:04:36.842Z,70.30
2018-03-18T04:07:04.392Z,69.90
2018-03-18T04:09:31.964Z,70.20
2018-03-18T04:11:59.514Z,70.00
2018-03-18T04:14:27.081Z,69.80
2018-03-18T04:16:54.964Z,69.20
2018-03-18T04:19:22.560Z,69.50
2018-03-18T04:21:50.878Z,70.00
2018-03-18T04:24:18.638Z,70.00
2018-03-18T04:26:46.181Z,69.30
2018-03-18T04:29:13.757Z,69.20
2018-03-18T04:31:41.320Z,69.10
2018-03-18T04:34:08.869Z,69.10
2018-03-18T04:36:36.430Z,69.40
2018-03-18T04:39:03.964Z,69.50
2018-03-18T04:41:31.492Z,69.10
2018-03-18T04:43:59.062Z,69.00
2018-03-18T04:46:26.601Z,69.60
2018-03-18T04:48:54.166Z,68.90
2018-03-18T04:51:21.728Z,68.90
2018-03-18T04:53:49.311Z,69.30
2018-03-18T04:56:16.852Z,68.90
2018-03-18T04:58:45.349Z,69.30
2018-03-18T05:01:13.769Z,69.50
2018-03-18T05:03:41.418Z,69.40
2018-03-18T05:06:08.964Z,69.40
2018-03-18T05:08:37.331Z,69.40
2018-03-18T05:11:04.868Z,69.40
2018-03-18T05:13:32.393Z,69.40
2018-03-18T05:15:59.978Z,69.30
2018-03-18T05:18:27.515Z,68.90
2018-03-18T05:20:55.083Z,68.90
2018-03-18T05:23:22.628Z,69.20
2018-03-18T05:25:50.191Z,69.40
2018-03-18T05:28:17.750Z,69.00
2018-03-18T05:30:45.317Z,69.00
2018-03-18T05:33:12.993Z,68.80
2018-03-18T05:35:40.564Z,68.80
2018-03-18T05:38:09.622Z,68.80
2018-03-18T05:40:37.180Z,68.80
2018-03-18T05:43:04.737Z,68.20
2018-03-18T05:45:32.306Z,68.70
2018-03-18T05:47:59.843Z,68.70
2018-03-18T05:50:27.402Z,69.20
2018-03-18T05:52:54.949Z,68.80
2018-03-18T05:55:22.729Z,68.80
2018-03-18T05:57:50.248Z,68.80
2018-03-18T06:00:18.572Z,68.90
2018-03-18T06:02:46.124Z,68.90
2018-03-18T06:05:13.705Z,68.50
2018-03-18T06:07:41.316Z,68.90
2018-03-18T06:10:09.025Z,68.20
2018-03-18T06:12:36.588Z,68.60
2018-03-18T06:15:04.147Z,67.90
2018-03-18T06:17:31.747Z,67.70
2018-03-18T06:19:59.416Z,66.40
2018-03-18T06:22:27.741Z,66.70
2018-03-18T06:24:55.384Z,66.60
2018-03-18T06:27:22.873Z,67.10
2018-03-18T06:29:50.448Z,67.00
2018-03-18T06:32:17.986Z,67.70
2018-03-18T06:34:45.570Z,67.60
2018-03-18T06:37:13.122Z,67.50
2018-03-18T06:39:40.725Z,68.00
2018-03-18T06:42:08.369Z,67.70
2018-03-18T06:44:36.697Z,67.60
2018-03-18T06:47:04.406Z,67.60
2018-03-18T06:49:31.941Z,67.00
2018-03-18T06:51:59.494Z,66.60
2018-03-18T06:54:27.052Z,66.70
2018-03-18T06:56:54.662Z,66.50
2018-03-18T06:59:22.192Z,66.40
2018-03-18T07:01:50.561Z,65.70
2018-03-18T07:04:18.120Z,65.70
2018-03-18T07:06:45.693Z,66.40
2018-03-18T07:09:13.241Z,65.10
2018-03-18T07:11:40.814Z,65.10
2018-03-18T07:14:08.358Z,65.20
2018-03-18T07:16:35.908Z,65.90
2018-03-18T07:19:03.644Z,65.20
2018-03-18T07:21:31.229Z,65.20
2018-03-18T07:23:58.856Z,65.60
2018-03-18T07:26:26.500Z,65.90
2018-03-18T07:28:54.070Z,65.30
2018-03-18T07:31:21.620Z,65.20
2018-03-18T07:33:49.178Z,65.30
2018-03-18T07:36:16.750Z,65.30
2018-03-18T07:38:44.401Z,65.30
2018-03-18T07:41:11.973Z,65.40
2018-03-18T07:43:39.522Z,65.50
2018-03-18T07:46:07.095Z,65.50
2018-03-18T07:48:34.649Z,65.60
2018-03-18T07:51:02.221Z,64.90
2018-03-18T07:53:29.787Z,64.80
2018-03-18T07:55:57.368Z,65.30
2018-03-18T07:58:24.924Z,65.70
2018-03-18T08:00:52.506Z,65.30
2018-03-18T08:03:20.818Z,64.10
2018-03-18T08:05:48.392Z,64.10
2018-03-18T08:08:15.954Z,64.40
2018-03-18T08:10:43.557Z,65.00
2018-03-18T08:13:11.854Z,64.40
2018-03-18T08:15:40.191Z,64.10
2018-03-18T08:18:07.738Z,64.10
2018-03-18T08:20:35.309Z,63.70
2018-03-18T08:23:02.857Z,63.70
2018-03-18T08:25:30.432Z,62.90
2018-03-18T08:27:57.966Z,63.40
2018-03-18T08:30:25.538Z,62.30
2018-03-18T08:32:53.078Z,62.60
2018-03-18T08:35:20.665Z,62.10
2018-03-18T08:37:48.233Z,62.60
2018-03-18T08:40:15.802Z,62.10
2018-03-18T08:42:43.381Z,62.50
2018-03-18T08:45:11.702Z,62.00
2018-03-18T08:47:39.277Z,62.00
2018-03-18T08:50:06.855Z,63.00
2018-03-18T08:52:34.580Z,62.40
2018-03-18T08:55:02.112Z,62.20
2018-03-18T08:57:30.483Z,62.20
2018-03-18T08:59:58.029Z,62.20
2018-03-18T09:02:26.512Z,61.50
2018-03-18T09:04:54.105Z,61.40
2018-03-18T09:07:22.388Z,62.00
2018-03-18T09:09:50.009Z,61.50
2018-03-18T09:12:18.798Z,61.90
2018-03-18T09:14:47.148Z,62.50
2018-03-18T09:17:14.706Z,62.50
2018-03-18T09:19:42.545Z,60.60
2018-03-18T09:22:10.096Z,61.00
2018-03-18T09:24:37.662Z,60.80
2018-03-18T09:27:05.246Z,61.90
2018-03-18T09:29:32.836Z,62.00
2018-03-18T09:32:01.178Z,61.90
2018-03-18T09:34:28.743Z,61.30
2018-03-18T09:36:56.310Z,61.30
2018-03-18T09:39:23.925Z,62.30
2018-03-18T09:41:51.704Z,61.20
2018-03-18T09:44:19.377Z,61.20
2018-03-18T09:46:46.935Z,60.50
2018-03-18T09:49:14.874Z,61.80
2018-03-18T09:51:42.452Z,61.30
2018-03-18T09:54:10.010Z,60.60
2018-03-18T09:56:37.583Z,60.50
2018-03-18T09:59:05.142Z,60.20
2018-03-18T10:01:32.717Z,59.60
2018-03-18T10:04:00.415Z,58.50
2018-03-18T10:06:28.763Z,59.50
2018-03-18T10:08:56.379Z,59.40
2018-03-18T10:11:23.952Z,59.80
2018-03-18T10:13:51.569Z,58.90
2018-03-18T10:16:19.401Z,58.80
2018-03-18T10:18:46.958Z,58.90
2018-03-18T10:21:14.518Z,59.10
2018-03-18T10:23:42.150Z,59.00
2018-03-18T10:26:10.548Z,58.90
2018-03-18T10:28:38.121Z,59.40
2018-03-18T10:31:05.675Z,59.00
2018-03-18T10:33:33.268Z,58.90
2018-03-18T10:36:01.898Z,59.00
2018-03-18T10:38:29.685Z,59.00
2018-03-18T10:40:57.269Z,58.20
2018-03-18T10:43:26.353Z,55.60
2018-03-18T10:45:53.906Z,55.60
2018-03-18T10:48:21.545Z,56.70
2018-03-18T10:50:49.304Z,57.90
2018-03-18T10:53:16.874Z,58.70
2018-03-18T10:55:44.525Z,58.10
2018-03-18T10:58:12.189Z,58.60
2018-03-18T11:00:43.578Z,56.30
2018-03-18T11:03:12.056Z,58.40
2018-03-18T11:05:40.373Z,57.80
2018-03-18T11:08:07.925Z,57.80
2018-03-18T11:10:35.480Z,56.60
2018-03-18T11:13:03.809Z,57.70
2018-03-18T11:15:31.357Z,57.70
2018-03-18T11:17:58.926Z,58.90
2018-03-18T11:20:26.468Z,59.40
2018-03-18T11:22:54.034Z,55.60
2018-03-18T11:25:21.601Z,57.00
2018-03-18T11:27:49.204Z,57.00
2018-03-18T11:30:16.742Z,56.20
2018-03-18T11:32:45.048Z,57.40
2018-03-18T11:35:13.373Z,55.90
2018-03-18T11:37:40.917Z,55.90
2018-03-18T11:40:08.495Z,57.10
2018-03-18T11:42:36.054Z,57.60
2018-03-18T11:45:03.636Z,58.10
2018-03-18T11:47:31.194Z,56.80
2018-03-18T11:49:59.539Z,54.90
2018-03-18T11:52:27.134Z,54.80
2018-03-18T11:54:55.461Z,55.90
2018-03-18T11:57:23.228Z,55.90
2018-03-18T11:59:50.781Z,55.40
2018-03-18T12:02:18.325Z,57.30
2018-03-18T12:04:45.899Z,56.90
2018-03-18T12:07:13.449Z,53.50
2018-03-18T12:09:41.078Z,56.80
2018-03-18T12:12:08.636Z,56.60
2018-03-18T12:14:36.284Z,58.50
2018-03-18T12:17:03.875Z,58.90
2018-03-18T12:19:31.413Z,56.40
2018-03-18T12:22:00.056Z,55.80
2018-03-18T12:24:27.596Z,55.90
2018-03-18T12:26:55.170Z,54.50
2018-03-18T12:29:22.705Z,55.30
2018-03-18T12:31:51.037Z,55.70
2018-03-18T12:34:18.628Z,55.70
2018-03-18T12:36:47.185Z,56.40
2018-03-18T12:39:14.767Z,56.40
2018-03-18T12:41:43.523Z,56.90
2018-03-18T12:44:11.271Z,57.10
2018-03-18T12:46:38.805Z,58.10
2018-03-18T12:49:06.604Z,56.80
2018-03-18T12:51:34.174Z,56.60
2018-03-18T12:54:02.085Z,55.20
2018-03-18T12:56:29.779Z,53.90
2018-03-18T12:58:57.342Z,54.60
2018-03-18T13:01:24.909Z,56.40
2018-03-18T13:03:52.465Z,57.30
2018-03-18T13:06:20.098Z,58.50
2018-03-18T13:08:47.684Z,57.60
2018-03-18T13:11:15.244Z,55.50
2018-03-18T13:13:42.941Z,56.20
2018-03-18T13:16:10.562Z,55.80
2018-03-18T13:18:38.125Z,56.20
2018-03-18T13:21:05.666Z,55.60
2018-03-18T13:23:33.243Z,55.30
2018-03-18T13:26:00.804Z,56.90
2018-03-18T13:28:28.437Z,56.50
2018-03-18T13:30:55.988Z,56.50
2018-03-18T13:33:23.645Z,57.00
2018-03-18T13:35:51.246Z,57.40
2018-03-18T13:38:18.933Z,56.20
2018-03-18T13:40:46.469Z,56.20
2018-03-18T13:43:14.210Z,55.20
2018-03-18T13:45:42.545Z,55.20
2018-03-18T13:48:10.162Z,55.20
2018-03-18T13:50:37.759Z,55.00
2018-03-18T13:53:05.331Z,53.80
2018-03-18T13:55:32.896Z,53.20
2018-03-18T13:58:00.538Z,53.30
2018-03-18T14:00:28.577Z,54.20
2018-03-18T14:02:56.166Z,53.10
2018-03-18T14:05:23.994Z,54.00
2018-03-18T14:07:52.387Z,52.60
2018-03-18T14:10:19.974Z,53.90
2018-03-18T14:12:47.756Z,54.60
2018-03-18T14:15:15.343Z,55.20
2018-03-18T14:17:42.899Z,54.20
2018-03-18T14:20:11.321Z,53.60
2018-03-18T14:22:39.487Z,53.60
2018-03-18T14:25:07.058Z,53.70
2018-03-18T14:27:34.734Z,53.80
2018-03-18T14:30:02.437Z,53.90
2018-03-18T14:32:30.044Z,54.10
2018-03-18T14:35:00.529Z,53.30
2018-03-18T14:37:28.284Z,53.80
2018-03-18T14:39:56.606Z,53.00
2018-03-18T14:42:24.148Z,52.90
2018-03-18T14:44:51.728Z,53.20
2018-03-18T14:47:19.336Z,53.60
2018-03-18T14:49:47.715Z,52.70
2018-03-18T14:52:16.832Z,52.80
2018-03-18T14:54:44.414Z,52.80
2018-03-18T14:57:11.993Z,51.60
2018-03-18T14:59:39.576Z,51.80
2018-03-18T15:02:08.681Z,54.40
2018-03-18T15:04:37.752Z,52.60
2018-03-18T15:07:05.393Z,52.60
2018-03-18T15:09:32.991Z,53.90
2018-03-18T15:12:01.252Z,50.50
2018-03-18T15:14:29.074Z,51.50
2018-03-18T15:16:56.636Z,51.30
2018-03-18T15:19:24.288Z,53.30
2018-03-18T15:21:51.825Z,53.10
2018-03-18T15:24:19.486Z,52.50
2018-03-18T15:26:48.276Z,53.00
2018-03-18T15:29:18.018Z,54.00
2018-03-18T15:31:45.746Z,54.00
2018-03-18T15:34:13.326Z,53.30
2018-03-18T15:36:40.857Z,54.60
2018-03-18T15:39:08.431Z,55.00
2018-03-18T15:41:36.754Z,54.60
2018-03-18T15:44:04.318Z,54.50
2018-03-18T15:46:31.867Z,55.30
2018-03-18T15:48:59.459Z,54.50
2018-03-18T15:51:27.008Z,55.00
2018-03-18T15:53:54.568Z,55.10
2018-03-18T15:56:22.605Z,55.20
2018-03-18T15:58:50.354Z,56.30
2018-03-18T16:01:17.920Z,55.20
2018-03-18T16:03:45.545Z,56.30
2018-03-18T16:06:13.102Z,56.20
2018-03-18T16:08:40.681Z,56.00
2018-03-18T16:11:08.241Z,56.20
2018-03-18T16:13:36.596Z,56.00
2018-03-18T16:16:04.134Z,56.00
2018-03-18T16:18:31.745Z,57.20
2018-03-18T16:20:59.382Z,55.80
2018-03-18T16:23:26.986Z,55.70
2018-03-18T16:25:54.560Z,55.80
2018-03-18T16:28:22.323Z,56.30
2018-03-18T16:31:01.780Z,55.60
2018-03-18T16:33:29.511Z,55.70
2018-03-18T16:35:57.063Z,56.30
2018-03-18T16:38:24.642Z,56.80
2018-03-18T16:40:52.194Z,56.50
2018-03-18T16:43:19.772Z,55.80
2018-03-18T16:45:47.297Z,57.00
2018-03-18T16:48:14.890Z,56.40
2018-03-18T16:50:42.450Z,55.80
2018-03-18T16:53:10.026Z,56.50
2018-03-18T16:55:37.580Z,56.60
2018-03-18T16:58:05.171Z,57.40
2018-03-18T17:00:32.741Z,57.30
2018-03-18T17:03:01.090Z,57.20
2018-03-18T17:05:30.450Z,57.20
2018-03-18T17:07:58.020Z,57.30
2018-03-18T17:10:25.592Z,57.20
2018-03-18T17:12:53.145Z,57.10
2018-03-18T17:15:20.712Z,57.10
2018-03-18T17:17:48.266Z,57.00
2018-03-18T17:20:15.842Z,57.00
2018-03-18T17:22:44.154Z,57.60
2018-03-18T17:25:12.508Z,57.80
2018-03-18T17:27:40.068Z,57.70
2018-03-18T17:30:08.393Z,58.40
2018-03-18T17:32:35.990Z,58.40
2018-03-18T17:35:03.526Z,57.70
2018-03-18T17:37:31.115Z,58.20
2018-03-18T17:39:59.437Z,57.60
2018-03-18T17:42:27.023Z,57.70
2018-03-18T17:45:06.478Z,58.00
2018-03-18T17:47:45.835Z,58.20
2018-03-18T17:50:19.174Z,57.60
2018-03-18T17:52:58.530Z,57.60
2018-03-18T17:55:31.594Z,57.90
2018-03-18T17:57:59.174Z,57.70
2018-03-18T18:00:26.721Z,57.10
2018-03-18T18:02:54.353Z,56.60
2018-03-18T18:05:21.910Z,56.60
2018-03-18T18:07:50.425Z,56.60
2018-03-18T18:10:18.049Z,56.60
2018-03-18T18:12:46.938Z,57.40
2018-03-18T18:15:15.272Z,56.70
2018-03-18T18:17:42.862Z,56.60
2018-03-18T18:20:10.451Z,56.70
2018-03-18T18:22:38.050Z,57.30
2018-03-18T18:25:05.799Z,57.70
2018-03-18T18:27:33.334Z,58.40
2018-03-18T18:30:01.132Z,57.60
2018-03-18T18:32:28.714Z,56.80
2018-03-18T18:34:56.316Z,56.60
2018-03-18T18:37:24.741Z,56.60
2018-03-18T18:39:52.323Z,56.60
2018-03-18T18:42:21.430Z,56.60
2018-03-18T18:44:48.980Z,56.50
2018-03-18T18:47:16.760Z,57.10
2018-03-18T18:49:45.158Z,56.50
2018-03-18T18:52:13.508Z,57.10
2018-03-18T18:54:41.097Z,57.10
2018-03-18T18:57:08.712Z,56.90
2018-03-18T18:59:36.278Z,57.20
2018-03-18T19:02:03.927Z,57.60
2018-03-18T19:04:31.467Z,56.80
2018-03-18T19:06:59.187Z,56.50
2018-03-18T19:09:27.549Z,57.30
2018-03-18T19:11:55.133Z,57.30
2018-03-18T19:14:23.524Z,58.40
2018-03-18T19:16:52.825Z,58.40
2018-03-18T19:19:20.439Z,57.70
2018-03-18T19:21:47.994Z,57.40
2018-03-18T19:24:16.110Z,57.70
2018-03-18T19:26:44.464Z,57.30
2018-03-18T19:29:12.030Z,57.40
2018-03-18T19:31:40.381Z,57.80
2018-03-18T19:34:08.110Z,57.80
2018-03-18T19:36:36.153Z,57.30
2018-03-18T19:39:03.728Z,57.40
2018-03-18T19:41:32.054Z,57.70
2018-03-18T19:43:59.667Z,57.60
2018-03-18T19:46:27.268Z,58.00
2018-03-18T19:48:54.820Z,58.00
2018-03-18T19:51:22.442Z,58.10
2018-03-18T19:53:50.005Z,58.40
2018-03-18T19:56:17.769Z,58.30
2018-03-18T19:58:45.584Z,57.90
2018-03-18T20:01:13.182Z,57.80
2018-03-18T20:03:40.757Z,58.00
2018-03-18T20:06:08.334Z,57.90
2018-03-18T20:08:35.874Z,58.40
2018-03-18T20:11:03.485Z,58.00
2018-03-18T20:13:31.798Z,58.40
2018-03-18T20:15:59.374Z,58.40
2018-03-18T20:18:26.960Z,58.20
2018-03-18T20:20:54.604Z,58.30
2018-03-18T20:23:22.690Z,58.80
2018-03-18T20:25:50.289Z,58.30
2018-03-18T20:28:17.828Z,57.80
2018-03-18T20:30:45.431Z,58.50
2018-03-18T20:33:13.078Z,58.40
2018-03-18T20:35:41.461Z,58.10
2018-03-18T20:38:09.226Z,58.00
2018-03-18T20:40:37.582Z,57.90
2018-03-18T20:43:05.158Z,58.00
2018-03-18T20:45:33.521Z,58.70
2018-03-18T20:48:01.849Z,58.40
2018-03-18T20:50:29.589Z,58.40
2018-03-18T20:52:58.260Z,58.80
2018-03-18T20:55:25.767Z,58.70
2018-03-18T20:57:53.422Z,59.00
2018-03-18T21:00:21.056Z,58.90
2018-03-18T21:02:49.449Z,58.90
2018-03-18T21:05:17.009Z,58.90
2018-03-18T21:07:44.584Z,58.70
2018-03-18T21:10:12.217Z,59.20
2018-03-18T21:12:39.803Z,58.80
2018-03-18T21:15:07.349Z,58.60
2018-03-18T21:17:34.921Z,58.70
2018-03-18T21:20:02.512Z,58.60
2018-03-18T21:22:30.053Z,58.50
2018-03-18T21:24:57.824Z,59.20
2018-03-18T21:27:25.370Z,59.70
2018-03-18T21:29:52.940Z,59.00
2018-03-18T21:32:20.566Z,59.20
2018-03-18T21:34:48.156Z,58.40
2018-03-18T21:37:15.781Z,59.30
2018-03-18T21:39:44.125Z,59.00
2018-03-18T21:42:11.846Z,59.00
2018-03-18T21:44:39.418Z,59.60
2018-03-18T21:47:07.023Z,58.90
2018-03-18T21:49:35.361Z,60.10
2018-03-18T21:52:02.935Z,59.70
2018-03-18T21:54:30.650Z,59.60
2018-03-18T21:56:58.190Z,58.90
2018-03-18T21:59:25.760Z,58.90
2018-03-18T22:01:54.224Z,59.40
2018-03-18T22:04:22.729Z,59.30
2018-03-18T22:06:50.275Z,59.20
2018-03-18T22:09:18.097Z,59.20
2018-03-18T22:11:45.719Z,60.20
2018-03-18T22:14:14.372Z,59.80
2018-03-18T22:16:42.023Z,59.70
2018-03-18T22:19:10.365Z,59.60
2018-03-18T22:21:39.409Z,59.00
2018-03-18T22:24:07.936Z,59.20
2018-03-18T22:26:36.929Z,59.20
2018-03-18T22:29:04.534Z,58.90
2018-03-18T22:31:32.252Z,58.90
2018-03-18T22:33:59.803Z,59.20
2018-03-18T22:36:27.384Z,59.10
2018-03-18T22:38:57.477Z,59.60
2018-03-18T22:41:25.052Z,58.80
2018-03-18T22:43:52.756Z,58.50
2018-03-18T22:46:21.067Z,58.60
2018-03-18T22:48:48.630Z,58.60
2018-03-18T22:51:16.379Z,58.90
2018-03-18T22:53:43.941Z,59.20
2018-03-18T22:56:12.257Z,58.90
2018-03-18T22:58:39.889Z,58.90
2018-03-18T23:01:07.422Z,59.30
2018-03-18T23:03:35.198Z,59.10
2018-03-18T23:06:03.530Z,59.80
2018-03-18T23:08:31.084Z,59.80
2018-03-18T23:10:58.625Z,59.20
2018-03-18T23:13:26.201Z,59.00
2018-03-18T23:15:53.847Z,59.30
2018-03-18T23:18:21.409Z,59.60
2018-03-18T23:20:48.974Z,59.70
2018-03-18T23:23:16.545Z,59.30
2018-03-18T23:25:44.085Z,60.00
2018-03-18T23:28:11.660Z,59.30
2018-03-18T23:30:39.303Z,59.90
2018-03-18T23:33:06.877Z,59.70
2018-03-18T23:35:34.434Z,59.40
2018-03-18T23:38:01.982Z,59.20
2018-03-18T23:40:29.521Z,59.60
2018-03-18T23:42:57.093Z,59.20
2018-03-18T23:45:24.655Z,59.40
2018-03-18T23:47:52.229Z,59.20
2018-03-18T23:50:19.768Z,60.00
2018-03-18T23:52:47.614Z,58.70
2018-03-18T23:55:15.933Z,59.40
2018-03-18T23:57:43.509Z,59.40
